Time;durP1;ratioP1;P1;durP2;ratioP2;P2;SDS_P1;SDS_P2;PMS_P1;PMS_P2;Temp;Humidity;BMP_temperature;BMP_pressure;BME280_temperature;BME280_humidity;BME280_pressure;Samples;Min_cycle;Max_cycle;Signal;HPM_P1;HPM_P2
2022/10/13 00:01:11;;;;;;;6.40;5.68;;;17.80;99.90;;;;;;5024250;28;20405;-70
2022/10/13 00:03:40;;;;;;;8.65;5.72;;;17.80;99.90;;;;;;4946816;28;20414;-70
2022/10/13 00:06:10;;;;;;;7.78;6.03;;;17.80;99.90;;;;;;4952949;28;21215;-70
2022/10/13 00:08:40;;;;;;;7.00;5.57;;;17.80;99.90;;;;;;4929590;29;20495;-70
2022/10/13 00:11:20;;;;;;;8.23;5.60;;;17.80;99.90;;;;;;4961838;28;20422;-70
2022/10/13 00:13:48;;;;;;;6.28;5.60;;;17.80;99.90;;;;;;4949621;28;20439;-70
2022/10/13 00:16:19;;;;;;;6.35;5.30;;;17.80;99.90;;;;;;4957977;28;20417;-70
2022/10/13 00:18:46;;;;;;;8.52;5.95;;;17.70;99.90;;;;;;4945403;29;21195;-70
2022/10/13 00:21:19;;;;;;;7.22;5.78;;;17.70;99.90;;;;;;4945932;28;20425;-70
2022/10/13 00:23:45;;;;;;;8.02;6.15;;;17.60;99.90;;;;;;4946279;28;20419;-70
2022/10/13 00:26:15;;;;;;;7.00;5.63;;;17.60;99.90;;;;;;4933597;29;20441;-70
2022/10/13 00:28:41;;;;;;;7.32;6.05;;;17.60;99.90;;;;;;4967262;28;20425;-72
2022/10/13 00:31:30;;;;;;;8.07;5.90;;;17.50;99.90;;;;;;4943893;28;20413;-70
2022/10/13 00:34:01;;;;;;;9.02;5.80;;;17.60;99.90;;;;;;4982390;28;20472;-70
2022/10/13 00:36:29;;;;;;;9.00;6.22;;;17.50;99.90;;;;;;4947135;28;20449;-70
2022/10/13 00:38:57;;;;;;;7.82;5.95;;;17.50;99.90;;;;;;4952821;28;20423;-70
2022/10/13 00:41:24;;;;;;;8.57;5.83;;;17.50;99.90;;;;;;4954276;28;20436;-70
2022/10/13 00:44:03;;;;;;;8.23;5.40;;;17.50;99.90;;;;;;4950687;28;20420;-70
2022/10/13 00:46:38;;;;;;;8.60;6.30;;;17.40;99.90;;;;;;4970110;28;20425;-72
2022/10/13 00:49:11;;;;;;;9.05;5.97;;;17.40;99.90;;;;;;4928529;28;20426;-70
2022/10/13 00:51:47;;;;;;;10.00;5.93;;;17.30;99.90;;;;;;4985424;28;20492;-70
2022/10/13 00:54:20;;;;;;;8.38;5.95;;;17.30;99.90;;;;;;4950848;28;20416;-70
2022/10/13 00:56:50;;;;;;;8.65;5.97;;;17.30;99.90;;;;;;4964041;28;20421;-70
2022/10/13 00:59:27;;;;;;;6.95;5.55;;;17.30;99.90;;;;;;4974213;28;20413;-72
2022/10/13 01:01:58;;;;;;;8.43;5.68;;;17.30;99.90;;;;;;4997320;28;20516;-70
2022/10/13 01:04:32;;;;;;;6.97;5.50;;;17.30;99.90;;;;;;5004174;28;20884;-72
2022/10/13 01:07:00;;;;;;;7.75;5.88;;;17.20;99.90;;;;;;4951092;28;20759;-72
2022/10/13 01:09:33;;;;;;;9.20;5.93;;;17.20;99.90;;;;;;5029349;28;20928;-72
2022/10/13 01:12:28;;;;;;;7.28;5.78;;;17.20;99.90;;;;;;5004003;28;20439;-72
2022/10/13 01:15:15;;;;;;;9.65;6.00;;;17.20;99.90;;;;;;4947815;28;21086;-72
2022/10/13 01:17:59;;;;;;;7.22;5.65;;;17.20;99.90;;;;;;5016029;28;20449;-70
2022/10/13 01:20:44;;;;;;;6.53;5.70;;;17.20;99.90;;;;;;4973382;28;20190;-72
2022/10/13 01:23:52;;;;;;;7.40;5.50;;;17.20;99.90;;;;;;4951813;28;20305;-72
2022/10/13 01:26:49;;;;;;;9.23;5.80;;;17.20;99.90;;;;;;4942791;28;20187;-72
2022/10/13 01:29:49;;;;;;;10.73;6.03;;;17.10;99.90;;;;;;4984850;28;20248;-72
2022/10/13 01:32:21;;;;;;;10.00;6.07;;;17.20;99.90;;;;;;4969225;28;20198;-72
2022/10/13 01:35:34;;;;;;;9.10;5.80;;;17.10;99.90;;;;;;4967418;28;20241;-72
2022/10/13 01:38:27;;;;;;;8.30;6.30;;;17.20;99.90;;;;;;4940926;28;20783;-72
2022/10/13 01:41:25;;;;;;;11.73;7.73;;;17.20;99.90;;;;;;4981200;28;20199;-72
2022/10/13 01:44:08;;;;;;;9.20;6.27;;;17.20;99.90;;;;;;5014739;28;20191;-72
2022/10/13 01:46:37;;;;;;;9.93;6.80;;;17.20;99.90;;;;;;4951927;28;20645;-72
2022/10/13 01:49:11;;;;;;;11.77;6.80;;;17.20;99.90;;;;;;4974476;28;20729;-72
2022/10/13 01:51:39;;;;;;;12.23;6.80;;;17.20;99.90;;;;;;4963457;28;20191;-72
2022/10/13 01:54:06;;;;;;;12.53;7.23;;;17.20;99.90;;;;;;4949993;29;20195;-72
2022/10/13 01:56:32;;;;;;;10.53;6.43;;;17.10;99.90;;;;;;4947905;28;20666;-70
2022/10/13 01:59:06;;;;;;;7.70;6.50;;;17.10;99.90;;;;;;4969782;28;20206;-70
2022/10/13 02:02:25;;;;;;;10.47;7.10;;;17.10;99.90;;;;;;4989288;28;20237;-72
2022/10/13 02:05:52;;;;;;;14.87;7.00;;;17.10;99.90;;;;;;5010938;28;20252;-73
2022/10/13 02:08:51;;;;;;;9.10;6.63;;;17.10;99.90;;;;;;4976602;28;20202;-70
2022/10/13 02:11:21;;;;;;;10.87;6.80;;;17.00;99.90;;;;;;4943710;28;20269;-69
2022/10/13 02:14:11;;;;;;;10.40;6.67;;;16.90;99.90;;;;;;4962102;28;20212;-70
2022/10/13 02:16:45;;;;;;;7.27;6.57;;;17.00;99.90;;;;;;4964585;28;20218;-70
2022/10/13 02:19:16;;;;;;;10.37;7.07;;;17.00;99.90;;;;;;5001855;28;20575;-72
2022/10/13 02:21:44;;;;;;;9.60;6.30;;;17.10;99.90;;;;;;4964439;28;20210;-70
2022/10/13 02:24:11;;;;;;;7.43;6.33;;;17.00;99.90;;;;;;4972334;28;20206;-72
2022/10/13 02:26:39;;;;;;;8.77;6.63;;;17.10;99.90;;;;;;4949356;28;20187;-72
2022/10/13 02:29:16;;;;;;;11.90;6.43;;;17.10;99.90;;;;;;4949403;28;20305;-71
2022/10/13 02:31:44;;;;;;;10.03;6.60;;;17.10;99.90;;;;;;5032267;28;20614;-72
2022/10/13 02:34:11;;;;;;;7.97;5.87;;;17.10;99.90;;;;;;4978386;28;20187;-72
2022/10/13 02:36:38;;;;;;;6.90;6.20;;;17.10;99.90;;;;;;4976828;28;20233;-72
2022/10/13 02:39:08;;;;;;;8.17;6.57;;;17.10;99.90;;;;;;4996529;28;20187;-70
2022/10/13 02:41:34;;;;;;;9.83;6.13;;;17.10;99.90;;;;;;4947758;28;20207;-72
2022/10/13 02:44:02;;;;;;;9.33;6.10;;;17.10;99.90;;;;;;4947514;29;20275;-72
2022/10/13 02:46:28;;;;;;;11.97;6.70;;;17.10;99.90;;;;;;4964736;28;20191;-72
2022/10/13 02:48:55;;;;;;;7.50;6.00;;;17.10;99.90;;;;;;4965000;28;20183;-72
2022/10/13 02:51:21;;;;;;;9.57;6.83;;;17.10;99.90;;;;;;4986472;28;20616;-72
2022/10/13 02:53:47;;;;;;;7.53;6.17;;;17.00;99.90;;;;;;4933075;28;20215;-72
2022/10/13 02:56:14;;;;;;;9.93;6.67;;;17.00;99.90;;;;;;4956968;28;20194;-70
2022/10/13 02:58:40;;;;;;;8.87;6.40;;;17.00;99.90;;;;;;4982701;28;20290;-72
2022/10/13 03:01:14;;;;;;;10.30;6.63;;;17.00;99.90;;;;;;4964492;28;20198;-72
2022/10/13 03:03:40;;;;;;;9.47;6.60;;;16.90;99.90;;;;;;4960734;28;20195;-72
2022/10/13 03:06:07;;;;;;;8.73;7.00;;;17.00;99.90;;;;;;4984230;28;20517;-73
2022/10/13 03:08:35;;;;;;;9.97;7.23;;;16.90;99.90;;;;;;4970555;28;20234;-70
2022/10/13 03:11:01;;;;;;;8.43;6.77;;;16.90;99.90;;;;;;4931708;29;20191;-72
2022/10/13 03:13:27;;;;;;;14.20;6.80;;;16.90;99.90;;;;;;4960805;28;20211;-72
2022/10/13 03:15:54;;;;;;;9.93;7.10;;;16.80;99.90;;;;;;5066132;28;20233;-72
2022/10/13 03:18:21;;;;;;;8.73;6.70;;;16.90;99.90;;;;;;5050942;28;20183;-73
2022/10/13 03:21:05;;;;;;;9.63;6.63;;;16.90;99.90;;;;;;5025463;28;20195;-70
2022/10/13 03:23:32;;;;;;;11.00;7.60;;;16.80;99.90;;;;;;4950028;28;20199;-70
2022/10/13 03:25:58;;;;;;;11.13;7.77;;;16.90;99.90;;;;;;4984037;28;20273;-70
2022/10/13 03:28:25;;;;;;;7.83;7.07;;;16.80;99.90;;;;;;4983326;28;20278;-72
2022/10/13 03:31:04;;;;;;;8.43;7.07;;;16.80;99.90;;;;;;4966804;28;20202;-72
2022/10/13 03:33:32;;;;;;;11.60;7.40;;;16.80;99.90;;;;;;4979620;28;20195;-72
2022/10/13 03:36:01;;;;;;;12.30;7.80;;;16.80;99.90;;;;;;4970228;28;20184;-72
2022/10/13 03:38:32;;;;;;;9.60;7.37;;;16.80;99.90;;;;;;4999994;28;20198;-70
2022/10/13 03:41:15;;;;;;;11.77;7.03;;;16.80;99.90;;;;;;4978284;28;20276;-72
2022/10/13 03:43:43;;;;;;;11.10;7.77;;;16.70;99.90;;;;;;4973900;28;20194;-70
2022/10/13 03:46:16;;;;;;;10.50;7.10;;;16.70;99.90;;;;;;4972364;28;20281;-70
2022/10/13 03:48:43;;;;;;;11.17;7.70;;;16.70;99.90;;;;;;4947374;29;20195;-72
2022/10/13 03:51:14;;;;;;;8.53;7.40;;;16.70;99.90;;;;;;4953372;28;20183;-72
2022/10/13 03:53:41;;;;;;;12.70;7.60;;;16.70;99.90;;;;;;4948586;28;20857;-72
2022/10/13 03:56:11;;;;;;;9.93;7.00;;;16.70;99.90;;;;;;4989764;28;20270;-70
2022/10/13 03:58:37;;;;;;;9.93;7.73;;;16.70;99.90;;;;;;4958664;28;20191;-70
2022/10/13 04:01:07;;;;;;;13.90;7.93;;;16.70;99.90;;;;;;4966237;28;20189;-73
2022/10/13 04:03:34;;;;;;;13.30;7.23;;;16.70;99.90;;;;;;4966154;28;20191;-73
2022/10/13 04:06:03;;;;;;;10.07;7.13;;;16.70;99.90;;;;;;4952047;28;20195;-72
2022/10/13 04:08:32;;;;;;;14.33;8.07;;;16.70;99.90;;;;;;5004094;28;20179;-72
2022/10/13 04:11:06;;;;;;;15.03;7.83;;;16.70;99.90;;;;;;4964846;28;20176;-72
2022/10/13 04:13:33;;;;;;;11.67;8.30;;;16.70;99.90;;;;;;4950054;28;20226;-72
2022/10/13 04:16:12;;;;;;;12.77;8.23;;;16.70;99.90;;;;;;4963378;28;20183;-72
2022/10/13 04:18:39;;;;;;;11.80;8.33;;;16.70;99.90;;;;;;4953256;28;20185;-72
2022/10/13 04:21:15;;;;;;;12.07;8.53;;;16.80;99.90;;;;;;4957481;28;20221;-72
2022/10/13 04:23:44;;;;;;;9.93;7.77;;;16.80;99.90;;;;;;4978474;28;20221;-72
2022/10/13 04:26:21;;;;;;;11.33;8.37;;;16.90;99.90;;;;;;5048160;28;20192;-72
2022/10/13 04:28:50;;;;;;;9.37;8.37;;;16.90;99.90;;;;;;5049646;28;20171;-72
2022/10/13 04:31:20;;;;;;;12.83;9.27;;;16.90;99.90;;;;;;5048905;28;20278;-72
2022/10/13 04:33:47;;;;;;;11.03;7.80;;;16.90;99.90;;;;;;5046065;28;20580;-72
2022/10/13 04:36:15;;;;;;;10.47;8.03;;;16.90;99.90;;;;;;4991181;28;20171;-72
2022/10/13 04:38:42;;;;;;;11.10;9.10;;;16.90;99.90;;;;;;4975287;28;20918;-72
2022/10/13 04:41:12;;;;;;;14.07;8.70;;;16.90;99.90;;;;;;4947320;29;20183;-72
2022/10/13 04:43:38;;;;;;;9.67;8.67;;;16.90;99.90;;;;;;5023911;28;20817;-72
2022/10/13 04:46:17;;;;;;;10.73;8.53;;;16.90;99.90;;;;;;4976193;28;20788;-72
2022/10/13 04:48:44;;;;;;;11.57;8.57;;;16.90;99.90;;;;;;4979251;28;20728;-72
2022/10/13 04:51:15;;;;;;;10.50;8.50;;;16.90;99.90;;;;;;4954621;28;21004;-72
2022/10/13 04:53:42;;;;;;;10.60;8.27;;;16.90;99.90;;;;;;4946423;28;20195;-72
2022/10/13 04:56:14;;;;;;;9.33;8.37;;;16.90;99.90;;;;;;5029480;28;20258;-72
2022/10/13 04:58:43;;;;;;;10.57;8.07;;;17.00;99.90;;;;;;5064678;28;20372;-72
2022/10/13 05:01:23;;;;;;;11.33;8.73;;;16.90;99.90;;;;;;5046742;28;20180;-72
2022/10/13 05:03:58;;;;;;;10.80;8.47;;;17.00;99.90;;;;;;4951847;28;20818;-72
2022/10/13 05:06:29;;;;;;;9.17;8.27;;;17.00;99.90;;;;;;4958471;28;20977;-72
2022/10/13 05:08:58;;;;;;;11.00;8.67;;;17.10;99.90;;;;;;4978058;28;20648;-72
2022/10/13 05:11:26;;;;;;;10.33;8.67;;;17.10;99.90;;;;;;5009005;28;20233;-72
2022/10/13 05:13:53;;;;;;;13.27;8.63;;;17.10;99.90;;;;;;4957111;28;20195;-72
2022/10/13 05:16:21;;;;;;;11.20;8.37;;;17.20;99.90;;;;;;4951845;28;20191;-72
2022/10/13 05:18:49;;;;;;;13.37;9.20;;;17.20;99.90;;;;;;5011117;28;20214;-72
2022/10/13 05:21:22;;;;;;;10.67;8.80;;;17.30;99.90;;;;;;4979246;28;20195;-72
2022/10/13 05:23:52;;;;;;;11.13;8.80;;;17.30;99.90;;;;;;4951364;28;20183;-72
2022/10/13 05:26:22;;;;;;;13.17;9.33;;;17.40;99.90;;;;;;4951370;28;20191;-72
2022/10/13 05:28:49;;;;;;;17.73;8.97;;;17.40;99.90;;;;;;4966212;28;20275;-72
2022/10/13 05:31:19;;;;;;;12.10;9.70;;;17.50;99.90;;;;;;4950105;28;20226;-72
2022/10/13 05:33:47;;;;;;;13.30;8.60;;;17.50;99.90;;;;;;4958412;28;20190;-72
2022/10/13 05:36:29;;;;;;;13.43;9.00;;;17.50;99.90;;;;;;4961483;28;20740;-72
2022/10/13 05:39:00;;;;;;;11.97;9.50;;;17.60;99.90;;;;;;4996982;28;20233;-72
2022/10/13 05:41:28;;;;;;;11.50;8.93;;;17.60;99.90;;;;;;5003160;28;20219;-72
2022/10/13 05:44:06;;;;;;;13.60;10.13;;;17.70;99.90;;;;;;4978647;28;20271;-72
2022/10/13 05:46:32;;;;;;;11.67;10.10;;;17.70;99.90;;;;;;5061527;28;20184;-72
2022/10/13 05:48:59;;;;;;;14.47;10.80;;;17.80;99.90;;;;;;4950061;28;20195;-72
2022/10/13 05:51:38;;;;;;;23.63;10.70;;;17.80;99.90;;;;;;4995406;28;20596;-70
2022/10/13 05:54:23;;;;;;;15.13;10.57;;;17.90;99.90;;;;;;5014782;28;20191;-70
2022/10/13 05:57:37;;;;;;;12.60;10.43;;;17.90;99.90;;;;;;5030793;28;20190;-70
2022/10/13 06:00:15;;;;;;;13.87;10.33;;;18.00;99.90;;;;;;4960781;28;20199;-72
2022/10/13 06:02:58;;;;;;;15.67;9.90;;;18.10;99.90;;;;;;4954452;28;20226;-70
2022/10/13 06:05:27;;;;;;;16.93;11.07;;;18.10;99.90;;;;;;4969106;28;20174;-72
2022/10/13 06:07:54;;;;;;;14.10;10.67;;;18.20;99.90;;;;;;5001301;28;20187;-72
2022/10/13 06:10:22;;;;;;;13.67;9.67;;;18.20;99.90;;;;;;5000718;28;20240;-72
2022/10/13 06:12:48;;;;;;;25.03;11.07;;;18.20;99.90;;;;;;4981347;28;20258;-70
2022/10/13 06:15:16;;;;;;;14.60;11.00;;;18.30;99.90;;;;;;4967767;28;22175;-72
2022/10/13 06:17:43;;;;;;;16.40;9.77;;;18.30;99.90;;;;;;4981899;28;20191;-72
2022/10/13 06:20:10;;;;;;;15.37;9.97;;;18.40;99.90;;;;;;4976836;28;20182;-72
2022/10/13 06:22:38;;;;;;;13.47;9.97;;;18.40;99.90;;;;;;4984199;28;20210;-69
2022/10/13 06:25:06;;;;;;;13.17;10.07;;;18.50;99.90;;;;;;5001055;28;20183;-72
2022/10/13 06:27:33;;;;;;;15.27;9.57;;;18.60;99.90;;;;;;4973858;28;20218;-72
2022/10/13 06:30:03;;;;;;;15.30;8.90;;;18.60;99.90;;;;;;5011374;28;20268;-69
2022/10/13 06:32:30;;;;;;;19.20;10.50;;;18.70;99.90;;;;;;4995830;28;20194;-69
2022/10/13 06:34:57;;;;;;;19.67;9.60;;;18.70;99.90;;;;;;4962561;28;20200;-70
2022/10/13 06:37:23;;;;;;;15.97;9.13;;;18.70;99.90;;;;;;4984515;28;20454;-70
2022/10/13 06:39:55;;;;;;;18.70;9.37;;;18.80;99.90;;;;;;4979221;28;20710;-71
2022/10/13 06:42:24;;;;;;;12.50;8.63;;;18.80;99.90;;;;;;4977064;28;20298;-70
2022/10/13 06:44:55;;;;;;;17.27;8.33;;;18.90;99.90;;;;;;4949225;29;20245;-72
2022/10/13 06:47:23;;;;;;;14.23;9.10;;;18.90;99.90;;;;;;4964929;28;20191;-69
2022/10/13 06:49:53;;;;;;;15.27;8.30;;;19.00;99.90;;;;;;4979386;28;20187;-69
2022/10/13 06:52:19;;;;;;;13.07;9.23;;;19.00;99.90;;;;;;4955285;28;20222;-69
2022/10/13 06:54:46;;;;;;;12.87;8.60;;;19.10;99.90;;;;;;4965196;28;20186;-69
2022/10/13 06:57:13;;;;;;;11.93;8.33;;;19.20;99.90;;;;;;4949785;28;20195;-69
2022/10/13 06:59:39;;;;;;;15.50;8.10;;;19.20;99.90;;;;;;4950057;28;20655;-69
2022/10/13 07:02:08;;;;;;;18.23;8.53;;;19.30;99.90;;;;;;4942670;28;20222;-70
2022/10/13 07:04:34;;;;;;;10.83;7.90;;;19.30;99.90;;;;;;4964472;28;20195;-69
2022/10/13 07:07:00;;;;;;;13.43;7.93;;;19.40;99.90;;;;;;4949156;28;20183;-71
2022/10/13 07:09:27;;;;;;;11.73;7.67;;;19.40;99.90;;;;;;4948693;28;20199;-69
2022/10/13 07:11:53;;;;;;;14.23;8.17;;;19.40;99.90;;;;;;4974881;28;20191;-70
2022/10/13 07:14:19;;;;;;;11.57;7.43;;;19.60;99.90;;;;;;4951975;28;20579;-71
2022/10/13 07:16:48;;;;;;;11.17;7.27;;;19.60;99.90;;;;;;4982228;28;20194;-71
2022/10/13 07:19:14;;;;;;;18.80;7.40;;;19.70;99.90;;;;;;4969788;28;20815;-71
2022/10/13 07:21:41;;;;;;;12.70;6.80;;;19.80;99.90;;;;;;4952351;28;20215;-71
2022/10/13 07:24:10;;;;;;;10.63;7.00;;;19.90;99.90;;;;;;4968059;28;20191;-72
2022/10/13 07:26:36;;;;;;;13.47;6.90;;;19.90;99.90;;;;;;5030065;28;20236;-69
2022/10/13 07:29:02;;;;;;;14.07;6.40;;;20.00;99.90;;;;;;4962577;28;20186;-70
2022/10/13 07:31:30;;;;;;;11.80;6.30;;;20.00;99.90;;;;;;4949452;28;20879;-71
2022/10/13 07:33:59;;;;;;;11.10;6.07;;;20.10;99.90;;;;;;4966727;28;20184;-71
2022/10/13 07:36:27;;;;;;;12.80;5.73;;;20.30;99.90;;;;;;4942921;28;20194;-71
2022/10/13 07:38:54;;;;;;;11.10;5.93;;;20.30;99.90;;;;;;4943343;28;20612;-71
2022/10/13 07:41:20;;;;;;;12.47;6.13;;;20.30;99.90;;;;;;4969896;28;20661;-71
2022/10/13 07:43:47;;;;;;;7.83;5.47;;;20.30;99.90;;;;;;4971996;28;20249;-71
2022/10/13 07:46:13;;;;;;;8.67;5.17;;;20.40;99.90;;;;;;5029898;28;20240;-71
2022/10/13 07:48:40;;;;;;;14.20;6.10;;;20.40;99.90;;;;;;4986643;28;20187;-71
2022/10/13 07:51:11;;;;;;;9.97;6.27;;;20.50;99.90;;;;;;4966198;28;20194;-71
2022/10/13 07:53:45;;;;;;;9.50;5.60;;;20.70;99.90;;;;;;4952643;28;20678;-71
2022/10/13 07:56:15;;;;;;;9.20;4.87;;;20.70;99.90;;;;;;4950329;28;20194;-71
2022/10/13 07:58:47;;;;;;;8.03;5.33;;;20.70;99.90;;;;;;4947650;28;20199;-69
2022/10/13 08:01:15;;;;;;;8.17;4.73;;;20.80;99.90;;;;;;4952965;28;20190;-71
2022/10/13 08:03:42;;;;;;;7.77;4.70;;;21.00;99.90;;;;;;4948453;28;20230;-71
2022/10/13 08:06:09;;;;;;;8.87;5.07;;;21.00;99.90;;;;;;4949207;28;20183;-71
2022/10/13 08:08:36;;;;;;;10.30;5.37;;;21.10;99.90;;;;;;4977689;28;20664;-71
2022/10/13 08:11:08;;;;;;;9.17;4.60;;;21.10;99.90;;;;;;4948002;28;20183;-71
2022/10/13 08:13:35;;;;;;;12.47;4.60;;;21.10;99.90;;;;;;4973625;28;20187;-71
2022/10/13 08:16:03;;;;;;;8.87;4.67;;;21.10;99.90;;;;;;5028683;28;20198;-71
2022/10/13 08:18:30;;;;;;;7.53;4.77;;;21.10;99.90;;;;;;4966566;28;20252;-71
2022/10/13 08:21:02;;;;;;;6.67;4.37;;;21.20;99.90;;;;;;4941370;28;20286;-71
2022/10/13 08:23:32;;;;;;;10.97;5.33;;;21.20;99.90;;;;;;4949194;28;20218;-71
2022/10/13 08:25:59;;;;;;;7.43;4.30;;;21.20;99.90;;;;;;4962143;28;20286;-71
2022/10/13 08:28:28;;;;;;;10.43;5.00;;;21.20;99.90;;;;;;4968249;28;20203;-71
2022/10/13 08:30:58;;;;;;;9.70;4.60;;;21.30;99.90;;;;;;5046434;28;20286;-71
2022/10/13 08:33:26;;;;;;;12.03;4.30;;;21.40;99.90;;;;;;5021463;28;20696;-71
2022/10/13 08:35:52;;;;;;;12.60;4.77;;;21.50;99.90;;;;;;4956490;28;20191;-71
2022/10/13 08:38:20;;;;;;;6.37;4.47;;;21.60;99.90;;;;;;4944922;28;20191;-71
2022/10/13 08:40:49;;;;;;;7.43;4.37;;;21.60;99.90;;;;;;4962197;28;20670;-71
2022/10/13 08:43:20;;;;;;;6.97;3.90;;;21.60;99.90;;;;;;4952769;28;20634;-71
2022/10/13 08:45:58;;;;;;;8.20;3.93;;;21.80;99.90;;;;;;4988412;28;20666;-71
2022/10/13 08:48:31;;;;;;;8.47;4.10;;;21.90;99.90;;;;;;4975179;28;20762;-73
2022/10/13 08:51:04;;;;;;;12.37;4.90;;;21.90;99.90;;;;;;4971183;28;20309;-71
2022/10/13 08:53:40;;;;;;;10.73;4.83;;;22.10;99.90;;;;;;4948598;28;20198;-71
2022/10/13 08:56:24;;;;;;;11.23;4.80;;;22.30;99.90;;;;;;4956785;28;20191;-72
2022/10/13 08:58:53;;;;;;;7.83;5.20;;;22.40;99.90;;;;;;4944860;28;20206;-71
2022/10/13 09:01:30;;;;;;;9.10;4.87;;;22.50;99.90;;;;;;4944784;28;20246;-71
2022/10/13 09:04:32;;;;;;;7.63;4.93;;;22.60;99.90;;;;;;4945372;28;20529;-71
2022/10/13 09:07:05;;;;;;;11.90;5.60;;;22.70;99.90;;;;;;4952912;28;20201;-71
2022/10/13 09:09:33;;;;;;;9.03;5.23;;;22.70;99.90;;;;;;4987513;28;20253;-71
2022/10/13 09:12:00;;;;;;;12.87;5.53;;;22.70;99.90;;;;;;4942914;28;20191;-71
2022/10/13 09:14:35;;;;;;;8.50;5.20;;;22.80;99.90;;;;;;4976679;28;20219;-71
2022/10/13 09:17:25;;;;;;;7.83;4.83;;;22.90;99.90;;;;;;4990254;28;20198;-71
2022/10/13 09:20:15;;;;;;;8.95;5.35;;;22.90;99.90;;;;;;4958150;28;20530;-72
2022/10/13 09:22:42;;;;;;;16.35;5.95;;;22.90;99.90;;;;;;4943663;28;20907;-71
2022/10/13 09:25:19;;;;;;;8.67;5.20;;;23.00;99.90;;;;;;4949643;28;20636;-72
2022/10/13 09:28:00;;;;;;;10.07;5.47;;;22.90;99.90;;;;;;4946759;28;20218;-71
2022/10/13 09:30:39;;;;;;;12.20;5.40;;;23.00;99.90;;;;;;4947631;28;20708;-71
2022/10/13 09:33:10;;;;;;;9.43;5.53;;;23.10;99.90;;;;;;4937734;28;20274;-71
2022/10/13 09:36:06;;;;;;;8.23;5.07;;;23.20;99.90;;;;;;4950186;28;20195;-71
2022/10/13 09:38:34;;;;;;;13.27;5.15;;;23.20;99.90;;;;;;4962935;28;20203;-71
2022/10/13 09:41:09;;;;;;;7.13;5.10;;;23.20;99.90;;;;;;4961422;28;20187;-71
2022/10/13 09:43:46;;;;;;;11.55;5.43;;;23.20;99.90;;;;;;4973342;28;20622;-71
2022/10/13 09:46:37;;;;;;;11.63;5.00;;;23.30;99.90;;;;;;4960074;28;20205;-71
2022/10/13 09:49:42;;;;;;;9.88;5.28;;;23.30;99.90;;;;;;4947939;28;20262;-71
2022/10/13 09:52:11;;;;;;;5.78;4.95;;;23.40;99.90;;;;;;4955219;28;20871;-71
2022/10/13 09:54:51;;;;;;;10.15;5.20;;;23.40;99.90;;;;;;4939763;28;20280;-71
2022/10/13 09:57:40;;;;;;;9.85;5.18;;;23.60;99.90;;;;;;4978075;28;20189;-71
2022/10/13 10:00:25;;;;;;;7.03;4.68;;;23.70;99.90;;;;;;4984888;28;20206;-71
2022/10/13 10:03:03;;;;;;;8.88;5.05;;;23.90;99.90;;;;;;4957558;28;20276;-72
2022/10/13 10:05:50;;;;;;;8.25;5.60;;;24.00;99.90;;;;;;4955605;28;21835;-72
2022/10/13 10:08:48;;;;;;;7.82;4.93;;;24.10;99.90;;;;;;4950148;28;20191;-72
2022/10/13 10:11:41;;;;;;;9.38;5.07;;;23.90;99.90;;;;;;4953108;28;20634;-72
2022/10/13 10:14:23;;;;;;;11.90;5.25;;;24.00;99.90;;;;;;4940411;28;20195;-72
2022/10/13 10:17:08;;;;;;;8.55;4.80;;;24.30;99.90;;;;;;4986577;28;20359;-72
2022/10/13 10:20:27;;;;;;;10.30;4.82;;;24.50;99.90;;;;;;4952229;28;20528;-72
2022/10/13 10:23:10;;;;;;;8.75;4.88;;;24.70;99.90;;;;;;4963775;28;20215;-72
2022/10/13 10:26:07;;;;;;;8.88;5.03;;;24.60;99.90;;;;;;4945243;28;20197;-72
2022/10/13 10:28:44;;;;;;;10.00;4.35;;;25.10;99.90;;;;;;4980515;28;20183;-72
2022/10/13 10:31:55;;;;;;;8.48;4.45;;;25.40;99.90;;;;;;4965203;28;20243;-72
2022/10/13 10:34:46;;;;;;;10.70;4.45;;;25.60;99.90;;;;;;4975762;28;20281;-70
2022/10/13 10:37:53;;;;;;;7.00;4.15;;;25.90;99.90;;;;;;4980486;28;20202;-70
2022/10/13 10:40:35;;;;;;;8.43;4.57;;;25.90;99.90;;;;;;4947051;28;20654;-70
2022/10/13 10:43:31;;;;;;;8.23;4.68;;;25.70;99.90;;;;;;4939130;28;20198;-71
2022/10/13 10:45:59;;;;;;;10.13;3.55;;;25.60;99.90;;;;;;4942459;28;20196;-70
2022/10/13 10:48:38;;;;;;;9.05;4.18;;;25.70;99.90;;;;;;4960654;28;20225;-70
2022/10/13 10:51:10;;;;;;;12.20;4.20;;;27.40;99.90;;;;;;4966130;28;20186;-70
2022/10/13 10:53:54;;;;;;;7.60;4.20;;;26.60;99.90;;;;;;4945538;28;20188;-70
2022/10/13 10:56:33;;;;;;;7.90;3.97;;;25.60;99.90;;;;;;4941919;28;20273;-70
2022/10/13 10:59:50;;;;;;;8.93;4.68;;;25.20;99.90;;;;;;4976712;28;20219;-71
2022/10/13 11:02:59;;;;;;;11.02;4.28;;;24.90;99.90;;;;;;4960675;28;20215;-72
2022/10/13 11:05:56;;;;;;;8.65;4.50;;;24.80;99.90;;;;;;4966755;28;20187;-72
2022/10/13 11:08:37;;;;;;;7.07;4.22;;;24.70;99.90;;;;;;4953193;28;20644;-71
2022/10/13 11:11:22;;;;;;;7.72;4.25;;;24.80;99.90;;;;;;4974694;28;20190;-71
2022/10/13 11:14:27;;;;;;;8.50;4.35;;;24.90;99.90;;;;;;4922418;28;20286;-71
2022/10/13 11:17:05;;;;;;;13.50;4.82;;;24.80;99.90;;;;;;4945883;28;20544;-71
2022/10/13 11:19:36;;;;;;;9.90;4.00;;;24.80;99.90;;;;;;4974063;28;20270;-71
2022/10/13 11:22:03;;;;;;;8.18;4.43;;;24.80;99.90;;;;;;4982824;28;20215;-71
2022/10/13 11:24:37;;;;;;;6.82;4.30;;;24.70;99.90;;;;;;4947010;28;20192;-71
2022/10/13 11:27:39;;;;;;;12.38;4.93;;;24.70;99.90;;;;;;4971213;28;20905;-71
2022/10/13 11:30:48;;;;;;;7.03;4.57;;;24.70;99.90;;;;;;4943134;28;20593;-71
2022/10/13 11:33:34;;;;;;;10.07;4.43;;;24.70;99.90;;;;;;4948403;28;20531;-71
2022/10/13 11:36:48;;;;;;;11.23;4.60;;;24.60;99.90;;;;;;4950383;28;20556;-71
2022/10/13 11:39:26;;;;;;;8.25;4.60;;;24.60;99.90;;;;;;4965415;28;20752;-71
2022/10/13 11:42:13;;;;;;;12.48;4.70;;;24.60;99.90;;;;;;4948282;28;20300;-71
2022/10/13 11:44:45;;;;;;;7.60;4.93;;;24.60;99.90;;;;;;4949530;28;21030;-71
2022/10/13 11:48:04;;;;;;;7.40;4.78;;;24.60;99.90;;;;;;4920595;28;20191;-71
2022/10/13 11:51:00;;;;;;;8.32;4.80;;;24.60;99.90;;;;;;4974498;28;20235;-72
2022/10/13 11:54:00;;;;;;;8.20;4.75;;;24.50;99.90;;;;;;5013700;28;20188;-71
2022/10/13 11:56:47;;;;;;;8.18;4.78;;;24.50;99.90;;;;;;5013358;28;20202;-71
2022/10/13 11:59:30;;;;;;;11.70;5.28;;;24.50;99.90;;;;;;5049218;28;20184;-71
2022/10/13 12:02:16;;;;;;;11.25;5.55;;;24.50;99.90;;;;;;4944763;28;20226;-71
2022/10/13 12:04:59;;;;;;;9.73;5.40;;;24.50;99.90;;;;;;4975203;28;20194;-71
2022/10/13 12:07:39;;;;;;;8.35;5.35;;;24.40;99.90;;;;;;4945545;28;20187;-72
2022/10/13 12:10:15;;;;;;;11.00;5.30;;;24.40;99.90;;;;;;4945648;28;20833;-72
2022/10/13 12:12:49;;;;;;;10.25;5.63;;;24.40;99.90;;;;;;4950246;28;20624;-71
2022/10/13 12:15:32;;;;;;;10.48;5.43;;;24.40;99.90;;;;;;4956845;28;20202;-71
2022/10/13 12:17:59;;;;;;;9.25;5.50;;;24.30;99.90;;;;;;4968898;28;20188;-71
2022/10/13 12:20:30;;;;;;;9.05;5.40;;;24.30;99.90;;;;;;4963234;28;20195;-71
2022/10/13 12:22:57;;;;;;;10.20;5.72;;;24.30;99.90;;;;;;4981862;28;20262;-71
2022/10/13 12:25:29;;;;;;;8.57;5.70;;;24.30;99.90;;;;;;4974126;28;20280;-72
2022/10/13 12:27:59;;;;;;;7.57;5.45;;;24.30;99.90;;;;;;4950771;28;20187;-72
2022/10/13 12:30:35;;;;;;;18.15;5.75;;;24.30;99.90;;;;;;4971586;28;20195;-72
2022/10/13 12:33:16;;;;;;;10.23;5.85;;;24.10;99.90;;;;;;4958316;28;20252;-72
2022/10/13 12:35:43;;;;;;;12.98;6.20;;;24.10;99.90;;;;;;4969573;28;20197;-71
2022/10/13 12:38:18;;;;;;;12.48;6.18;;;24.10;99.90;;;;;;4947908;28;20191;-72
2022/10/13 12:40:48;;;;;;;14.65;5.97;;;24.10;99.90;;;;;;4958498;28;20190;-71
2022/10/13 12:43:24;;;;;;;14.32;6.07;;;24.10;99.90;;;;;;4931240;28;20643;-71
2022/10/13 12:45:51;;;;;;;16.52;6.50;;;24.00;99.90;;;;;;4944669;28;20187;-71
2022/10/13 12:48:37;;;;;;;11.52;6.10;;;24.00;99.90;;;;;;4961534;28;20627;-71
2022/10/13 12:51:27;;;;;;;12.75;6.25;;;24.00;99.90;;;;;;4955660;28;20213;-71
2022/10/13 12:53:54;;;;;;;13.18;6.63;;;23.80;99.90;;;;;;4967689;28;20197;-72
2022/10/13 12:56:29;;;;;;;11.82;5.93;;;23.80;99.90;;;;;;4964276;28;20237;-71
2022/10/13 12:58:57;;;;;;;18.10;6.50;;;23.80;99.90;;;;;;4944247;28;20213;-72
2022/10/13 13:01:34;;;;;;;12.57;6.97;;;23.80;99.90;;;;;;4947712;28;20580;-71
2022/10/13 13:04:22;;;;;;;12.13;7.13;;;23.80;99.90;;;;;;4946324;28;20186;-72
2022/10/13 13:06:59;;;;;;;14.82;7.05;;;23.70;99.90;;;;;;4945574;28;20687;-72
2022/10/13 13:09:32;;;;;;;11.32;6.85;;;23.60;99.90;;;;;;4945427;28;20190;-72
2022/10/13 13:12:05;;;;;;;13.23;6.65;;;23.70;99.90;;;;;;4951323;28;20831;-72
2022/10/13 13:14:37;;;;;;;13.20;6.93;;;23.80;99.90;;;;;;4967007;28;20724;-72
2022/10/13 13:17:07;;;;;;;11.85;7.13;;;23.70;99.90;;;;;;4947963;28;20190;-71
2022/10/13 13:19:35;;;;;;;19.45;7.45;;;23.80;99.90;;;;;;4966335;28;20191;-71
2022/10/13 13:22:08;;;;;;;11.63;7.30;;;23.70;99.90;;;;;;4965793;28;20699;-72